createdAt,value
2023-03-30T05:42:07.439Z,90.92
2023-03-30T05:45:13.273Z,90.56
2023-03-30T05:48:08.944Z,90.23
2023-03-30T05:50:55.958Z,90.43
2023-03-30T05:53:34.699Z,89.78
2023-03-30T05:56:18.802Z,89.73
2023-03-30T05:58:58.914Z,89.22
2023-03-30T06:01:47.560Z,89.28
2023-03-30T06:04:17.541Z,89.50
2023-03-30T06:06:45.878Z,89.29
2023-03-30T06:09:14.057Z,89.85
2023-03-30T06:11:43.300Z,89.47
2023-03-30T06:14:22.787Z,89.37
2023-03-30T06:17:17.066Z,89.32
2023-03-30T06:19:45.636Z,89.67
2023-03-30T06:22:13.889Z,89.11
2023-03-30T06:24:54.049Z,88.82
2023-03-30T06:27:22.991Z,88.57
2023-03-30T06:29:53.215Z,88.29
2023-03-30T06:32:22.510Z,87.78
2023-03-30T06:34:50.677Z,87.22
2023-03-30T06:37:21.267Z,86.79
2023-03-30T06:39:51.164Z,85.89
2023-03-30T06:42:19.588Z,86.76
2023-03-30T06:45:05.927Z,85.91
2023-03-30T06:47:34.731Z,85.06
2023-03-30T06:50:03.615Z,85.77
2023-03-30T06:53:07.101Z,84.71
2023-03-30T06:55:42.704Z,83.35
2023-03-30T06:58:14.745Z,82.44
2023-03-30T07:00:44.299Z,82.08
2023-03-30T07:03:39.480Z,81.75
2023-03-30T07:06:22.736Z,81.00
2023-03-30T07:08:51.962Z,80.54
2023-03-30T07:11:24.042Z,81.03
2023-03-30T07:13:55.536Z,81.26
2023-03-30T07:16:25.035Z,79.98
2023-03-30T07:18:54.969Z,77.11
2023-03-30T07:21:24.204Z,79.34
2023-03-30T07:23:52.755Z,80.10
2023-03-30T07:26:31.246Z,80.98
2023-03-30T07:29:06.877Z,80.29
2023-03-30T07:31:37.414Z,79.10
2023-03-30T07:34:07.880Z,79.22
2023-03-30T07:36:40.942Z,78.45
2023-03-30T07:39:09.466Z,78.76
2023-03-30T07:41:40.815Z,79.53
2023-03-30T07:44:09.182Z,80.20
2023-03-30T07:46:39.118Z,81.33
2023-03-30T07:49:09.424Z,81.02
2023-03-30T07:51:37.813Z,81.09
2023-03-30T07:54:13.354Z,76.79
2023-03-30T07:57:01.094Z,71.26
2023-03-30T07:59:29.266Z,68.06
2023-03-30T08:02:06.951Z,66.04
2023-03-30T08:04:47.343Z,70.32
2023-03-30T08:07:20.502Z,68.54
2023-03-30T08:09:52.471Z,58.31
2023-03-30T08:12:22.703Z,54.07
2023-03-30T08:14:50.831Z,53.71
2023-03-30T08:17:21.804Z,56.64
2023-03-30T08:19:50.645Z,56.62
2023-03-30T08:22:19.192Z,58.36
2023-03-30T08:24:47.608Z,56.87
2023-03-30T08:27:15.779Z,54.51
2023-03-30T08:29:43.866Z,55.03
2023-03-30T08:32:12.106Z,57.42
2023-03-30T08:34:41.983Z,54.34
2023-03-30T08:37:11.231Z,50.97
2023-03-30T08:39:39.600Z,53.01
2023-03-30T08:42:18.355Z,54.55
2023-03-30T08:44:52.642Z,56.93
2023-03-30T08:47:27.796Z,54.91
2023-03-30T08:50:08.573Z,53.92
2023-03-30T08:52:37.849Z,58.31
2023-03-30T08:55:06.852Z,62.38
2023-03-30T08:57:49.320Z,66.26
2023-03-30T09:00:27.681Z,68.35
2023-03-30T09:03:03.499Z,69.51
2023-03-30T09:05:37.800Z,64.75
2023-03-30T09:08:14.561Z,65.87
2023-03-30T09:10:46.670Z,60.89
2023-03-30T09:13:21.762Z,62.22
2023-03-30T09:15:53.580Z,67.21
2023-03-30T09:18:27.145Z,69.00
2023-03-30T09:21:00.546Z,69.81
2023-03-30T09:23:31.305Z,70.11
2023-03-30T09:26:09.116Z,71.44
2023-03-30T09:28:46.288Z,71.92
2023-03-30T09:31:21.269Z,72.88
2023-03-30T09:33:59.284Z,75.17
2023-03-30T09:36:40.802Z,73.95
2023-03-30T09:39:11.159Z,75.38
2023-03-30T09:41:52.582Z,75.88
2023-03-30T09:44:27.609Z,76.92
2023-03-30T09:47:00.526Z,76.50
2023-03-30T09:49:30.668Z,77.59
2023-03-30T09:52:05.974Z,77.75
2023-03-30T09:54:39.273Z,78.50
2023-03-30T09:57:22.981Z,79.07
2023-03-30T09:59:52.937Z,80.46
2023-03-30T10:02:22.340Z,83.39
2023-03-30T10:05:00.988Z,84.62
2023-03-30T10:07:33.369Z,86.96
2023-03-30T10:10:13.579Z,87.85
2023-03-30T10:12:42.357Z,89.89
2023-03-30T10:15:18.277Z,90.76
2023-03-30T10:17:48.491Z,90.51
2023-03-30T10:20:25.727Z,90.60
2023-03-30T10:22:57.866Z,91.32
2023-03-30T10:25:29.766Z,93.33
2023-03-30T10:28:03.059Z,93.46
2023-03-30T10:30:33.636Z,93.32
2023-03-30T10:33:03.948Z,93.48
2023-03-30T10:35:36.832Z,93.95
2023-03-30T10:38:10.464Z,93.73
2023-03-30T10:40:42.387Z,93.83
2023-03-30T10:43:15.893Z,94.39
2023-03-30T10:45:48.303Z,94.33
2023-03-30T10:48:30.777Z,93.21
2023-03-30T10:51:07.819Z,93.51
2023-03-30T10:53:48.985Z,92.92
2023-03-30T10:56:26.108Z,92.24
2023-03-30T10:59:07.675Z,92.90
2023-03-30T11:01:43.026Z,93.06
2023-03-30T11:04:23.747Z,93.91
2023-03-30T11:06:56.913Z,94.48
2023-03-30T11:09:33.549Z,94.75
2023-03-30T11:12:07.035Z,94.57
2023-03-30T11:14:47.663Z,94.73
2023-03-30T11:17:23.828Z,94.60
2023-03-30T11:19:56.989Z,94.15
2023-03-30T11:22:34.527Z,93.74
2023-03-30T11:25:09.611Z,93.83
2023-03-30T11:27:45.098Z,93.19
2023-03-30T11:30:19.671Z,92.58
2023-03-30T11:32:55.336Z,93.00
2023-03-30T11:35:32.070Z,91.85
2023-03-30T11:38:06.553Z,92.64
2023-03-30T11:40:43.074Z,92.78
2023-03-30T11:43:12.525Z,92.90
2023-03-30T11:45:53.382Z,92.31
2023-03-30T11:48:47.517Z,92.97
2023-03-30T11:51:28.532Z,94.09
2023-03-30T11:54:06.514Z,93.81
2023-03-30T11:56:41.122Z,93.97
2023-03-30T11:59:19.200Z,94.20
2023-03-30T12:02:01.352Z,93.77
2023-03-30T12:04:38.792Z,94.15
2023-03-30T12:07:15.442Z,93.36
2023-03-30T12:09:52.904Z,93.03
2023-03-30T12:12:32.779Z,92.20
2023-03-30T12:15:12.448Z,92.04
2023-03-30T12:17:46.977Z,91.62
2023-03-30T12:20:28.949Z,91.07
2023-03-30T12:23:03.245Z,91.41
2023-03-30T12:25:43.366Z,90.61
2023-03-30T12:28:15.722Z,89.26
2023-03-30T12:30:48.612Z,88.11
2023-03-30T12:33:20.305Z,88.47
2023-03-30T12:35:58.938Z,86.62
2023-03-30T12:38:38.462Z,86.63
2023-03-30T12:41:18.456Z,86.21
2023-03-30T12:44:19.456Z,86.24
2023-03-30T12:47:07.005Z,85.24
2023-03-30T12:49:47.525Z,85.14
2023-03-30T12:52:24.806Z,84.75
2023-03-30T12:55:11.365Z,84.88
2023-03-30T12:57:53.446Z,83.95
2023-03-30T13:00:36.597Z,84.82
2023-03-30T13:03:26.329Z,82.43
2023-03-30T13:05:57.435Z,79.06
2023-03-30T13:08:32.932Z,79.93
2023-03-30T13:11:10.598Z,81.72
2023-03-30T13:13:58.083Z,80.81
2023-03-30T13:17:03.252Z,83.54
2023-03-30T13:19:49.805Z,82.11
2023-03-30T13:22:31.795Z,81.97
2023-03-30T13:25:02.898Z,82.74
2023-03-30T13:27:34.438Z,83.10
2023-03-30T13:30:06.691Z,84.37
2023-03-30T13:32:54.943Z,83.83
2023-03-30T13:35:43.149Z,83.45
2023-03-30T13:38:37.839Z,82.71
2023-03-30T13:41:21.878Z,80.15
2023-03-30T13:44:07.960Z,82.14
2023-03-30T13:46:43.861Z,80.18
2023-03-30T13:49:22.996Z,81.90
2023-03-30T13:51:54.004Z,84.54
2023-03-30T13:54:27.624Z,84.78
2023-03-30T13:57:00.947Z,83.86
2023-03-30T13:59:32.366Z,83.90
2023-03-30T14:02:03.066Z,83.92
2023-03-30T14:04:32.837Z,84.80
2023-03-30T14:07:14.105Z,84.48
2023-03-30T14:09:42.265Z,84.54
2023-03-30T14:12:12.806Z,85.86
2023-03-30T14:14:47.210Z,85.90
2023-03-30T14:17:20.410Z,87.16
2023-03-30T14:20:03.542Z,86.00
2023-03-30T14:22:39.946Z,85.92
2023-03-30T14:25:24.210Z,85.73
2023-03-30T14:27:52.517Z,85.57
2023-03-30T14:30:23.566Z,85.09
2023-03-30T14:33:07.308Z,85.44
2023-03-30T14:35:39.322Z,85.34
2023-03-30T14:38:16.799Z,84.49
2023-03-30T14:40:48.032Z,84.72
2023-03-30T14:43:20.773Z,84.86
2023-03-30T14:45:50.579Z,85.18
2023-03-30T14:48:25.178Z,84.59
2023-03-30T14:50:53.517Z,84.23
2023-03-30T14:53:31.041Z,83.08
2023-03-30T14:56:02.778Z,81.97
2023-03-30T14:58:32.833Z,83.27
2023-03-30T15:01:06.846Z,82.49
2023-03-30T15:03:39.812Z,81.88
2023-03-30T15:06:09.296Z,80.65
2023-03-30T15:08:40.939Z,79.97
2023-03-30T15:11:13.687Z,78.25
2023-03-30T15:13:45.280Z,74.39
2023-03-30T15:16:17.614Z,74.89
2023-03-30T15:18:45.803Z,72.38
2023-03-30T15:21:14.742Z,71.24
2023-03-30T15:23:51.334Z,72.87
2023-03-30T15:26:21.465Z,74.40
2023-03-30T15:28:53.119Z,75.40
2023-03-30T15:31:21.959Z,75.26
2023-03-30T15:33:52.720Z,74.06
2023-03-30T15:36:23.068Z,75.50
2023-03-30T15:38:55.608Z,75.04
2023-03-30T15:41:27.619Z,76.70
2023-03-30T15:43:58.035Z,77.27
2023-03-30T15:46:28.942Z,79.60
2023-03-30T15:48:59.871Z,79.21
2023-03-30T15:51:33.337Z,78.05
2023-03-30T15:54:12.911Z,78.19
2023-03-30T15:56:47.632Z,79.27
2023-03-30T15:59:17.796Z,78.21
2023-03-30T16:01:52.650Z,76.79
2023-03-30T16:04:22.941Z,77.58
2023-03-30T16:06:52.635Z,78.69
2023-03-30T16:09:23.039Z,80.47
2023-03-30T16:11:51.875Z,81.53
2023-03-30T16:14:23.842Z,83.04
2023-03-30T16:16:53.159Z,83.40
2023-03-30T16:19:21.337Z,84.12
2023-03-30T16:21:49.759Z,84.64
2023-03-30T16:24:18.020Z,84.96
2023-03-30T16:26:47.956Z,84.89
2023-03-30T16:29:22.196Z,84.57
2023-03-30T16:31:51.091Z,84.86
2023-03-30T16:34:19.799Z,84.82
2023-03-30T16:36:48.275Z,84.73
2023-03-30T16:39:20.627Z,84.99
2023-03-30T16:41:51.569Z,85.00
2023-03-30T16:44:22.411Z,85.99
2023-03-30T16:46:52.337Z,85.74
2023-03-30T16:49:22.817Z,85.03
2023-03-30T16:51:53.752Z,82.32
2023-03-30T16:54:31.994Z,87.02
2023-03-30T16:57:04.093Z,89.84
2023-03-30T16:59:33.998Z,93.14
2023-03-30T17:02:27.764Z,93.73
2023-03-30T17:04:56.441Z,92.11
2023-03-30T17:07:25.063Z,91.77
2023-03-30T17:09:53.254Z,92.67
2023-03-30T17:12:23.055Z,93.21
2023-03-30T17:14:51.553Z,94.39
2023-03-30T17:18:33.191Z,94.84
2023-03-30T17:21:02.085Z,95.08
2023-03-30T17:26:40.274Z,95.39
2023-03-30T17:29:10.856Z,95.83
2023-03-30T17:31:39.374Z,95.35
2023-03-30T17:34:07.795Z,95.52
2023-03-30T17:36:35.925Z,96.03
2023-03-30T17:39:05.572Z,96.56
2023-03-30T17:41:35.447Z,97.26
2023-03-30T17:44:04.443Z,97.20
2023-03-30T17:46:34.236Z,97.37
2023-03-30T17:49:03.459Z,97.82
2023-03-30T17:51:31.772Z,98.58
2023-03-30T17:54:00.038Z,98.61
2023-03-30T17:59:21.936Z,99.65
2023-03-30T18:01:51.978Z,99.60
2023-03-30T18:04:20.787Z,99.53
2023-03-30T18:06:49.466Z,99.76
2023-03-30T18:09:17.881Z,99.78
2023-03-30T18:11:46.236Z,98.99
2023-03-30T18:14:14.690Z,98.50
2023-03-30T18:16:44.371Z,98.51
2023-03-30T18:19:14.619Z,98.60
2023-03-30T18:21:43.378Z,97.53
2023-03-30T18:24:11.498Z,96.89
2023-03-30T18:26:42.975Z,96.88
2023-03-30T18:29:20.385Z,96.86
2023-03-30T18:31:48.743Z,96.20
2023-03-30T18:34:19.910Z,95.31
2023-03-30T18:36:48.330Z,95.52
2023-03-30T18:39:20.156Z,94.71
2023-03-30T18:41:48.889Z,93.51
2023-03-30T18:44:17.054Z,93.28
2023-03-30T18:46:47.914Z,93.26
2023-03-30T18:49:20.924Z,93.71
2023-03-30T18:51:49.696Z,93.72
2023-03-30T18:54:17.832Z,93.56
2023-03-30T18:56:47.809Z,94.11
2023-03-30T18:59:16.025Z,94.33
2023-03-30T19:01:45.926Z,94.48
2023-03-30T19:04:15.234Z,94.42
2023-03-30T19:06:46.317Z,94.61
2023-03-30T19:09:17.827Z,94.73
2023-03-30T19:11:46.061Z,94.56
2023-03-30T19:14:14.279Z,94.25
2023-03-30T19:16:43.267Z,94.54
2023-03-30T19:19:15.453Z,94.32
2023-03-30T19:21:46.545Z,94.70
2023-03-30T19:24:14.600Z,95.08
2023-03-30T19:26:43.571Z,95.68
2023-03-30T19:29:13.000Z,96.03
2023-03-30T19:31:41.144Z,96.29
2023-03-30T19:34:09.368Z,96.12
2023-03-30T19:36:37.416Z,95.95
2023-03-30T19:39:08.286Z,96.37
2023-03-30T19:41:36.381Z,96.60
2023-03-30T19:44:05.261Z,96.64
2023-03-30T19:46:33.488Z,96.04
2023-03-30T19:49:01.454Z,96.70
2023-03-30T19:51:29.827Z,96.56
2023-03-30T19:53:58.527Z,96.76
2023-03-30T19:56:27.934Z,96.77
2023-03-30T19:58:56.078Z,96.78
2023-03-30T20:01:24.847Z,96.35
2023-03-30T20:03:53.245Z,96.06
2023-03-30T20:06:21.921Z,96.24
2023-03-30T20:08:50.089Z,96.81
2023-03-30T20:11:18.247Z,96.57
2023-03-30T20:13:47.990Z,96.61
2023-03-30T20:16:20.680Z,96.38
2023-03-30T20:18:54.897Z,96.63
2023-03-30T20:21:25.197Z,96.43
2023-03-30T20:23:53.527Z,96.73
2023-03-30T20:26:22.715Z,97.15
2023-03-30T20:28:52.240Z,97.33
2023-03-30T20:31:20.708Z,97.44
2023-03-30T20:33:49.267Z,97.45
2023-03-30T20:36:17.914Z,98.08
2023-03-30T20:38:47.270Z,97.85
2023-03-30T20:41:16.265Z,98.56
2023-03-30T20:43:56.405Z,98.82
2023-03-30T20:46:35.508Z,99.03
2023-03-30T20:49:03.893Z,98.67
2023-03-30T20:51:32.613Z,98.84
2023-03-30T20:54:01.458Z,98.83
2023-03-30T20:56:29.743Z,99.00
2023-03-30T20:58:58.644Z,98.95
2023-03-30T21:01:30.407Z,99.15
2023-03-30T21:04:00.496Z,99.05
2023-03-30T21:06:31.697Z,98.39
2023-03-30T21:09:01.884Z,98.65
2023-03-30T21:11:34.130Z,98.10
2023-03-30T21:14:03.112Z,98.47
2023-03-30T21:16:32.851Z,98.75
2023-03-30T21:19:01.428Z,98.95
2023-03-30T21:21:29.374Z,99.46
2023-03-30T21:23:58.263Z,99.88
2023-03-30T21:26:26.936Z,100.00
2023-03-30T21:28:55.362Z,100.00
2023-03-30T21:31:24.092Z,100.00
2023-03-30T21:33:54.227Z,100.00
2023-03-30T21:36:23.270Z,100.00
2023-03-30T21:38:51.861Z,100.00
2023-03-30T21:41:21.391Z,100.00
2023-03-30T21:43:50.071Z,99.63
2023-03-30T21:46:20.145Z,99.66
2023-03-30T21:48:52.593Z,99.27
2023-03-30T21:51:26.426Z,99.57
2023-03-30T21:53:56.229Z,99.45
2023-03-30T21:56:26.252Z,99.53
2023-03-30T21:58:54.697Z,99.77
2023-03-30T22:01:25.153Z,99.90
2023-03-30T22:03:53.834Z,99.73
2023-03-30T22:06:23.855Z,100.00
2023-03-30T22:08:52.104Z,100.00
2023-03-30T22:11:23.160Z,99.52
2023-03-30T22:13:54.416Z,98.53
2023-03-30T22:16:24.770Z,98.14
2023-03-30T22:18:53.411Z,97.39
2023-03-30T22:21:25.174Z,96.63
2023-03-30T22:23:54.749Z,96.76
2023-03-30T22:26:23.618Z,95.76
2023-03-30T22:28:52.149Z,95.12
2023-03-30T22:31:20.690Z,95.30
2023-03-30T22:33:49.322Z,94.76
2023-03-30T22:36:20.551Z,94.72
2023-03-30T22:38:51.348Z,94.34
2023-03-30T22:41:23.851Z,94.41
2023-03-30T22:43:52.940Z,94.21
2023-03-30T22:46:21.673Z,94.18
2023-03-30T22:48:51.777Z,93.82
2023-03-30T22:51:23.654Z,94.17
2023-03-30T22:53:54.767Z,94.82
2023-03-30T22:56:23.470Z,95.68
2023-03-30T22:58:51.694Z,95.68
2023-03-30T23:01:21.637Z,95.02
2023-03-30T23:03:50.522Z,95.21
2023-03-30T23:06:19.916Z,94.64
2023-03-30T23:08:48.888Z,94.68
2023-03-30T23:11:21.608Z,95.73
2023-03-30T23:13:49.982Z,95.33
2023-03-30T23:16:18.180Z,95.82
2023-03-30T23:18:46.450Z,95.66
2023-03-30T23:21:14.668Z,95.26
2023-03-30T23:23:42.905Z,94.77
2023-03-30T23:26:12.538Z,94.51
2023-03-30T23:28:43.783Z,93.92
2023-03-30T23:31:14.363Z,94.21
2023-03-30T23:33:43.661Z,94.68
2023-03-30T23:36:13.960Z,95.21
2023-03-30T23:38:42.821Z,95.29
2023-03-30T23:41:13.673Z,94.51
2023-03-30T23:43:44.216Z,93.65
2023-03-30T23:46:13.625Z,93.36
2023-03-30T23:48:42.266Z,92.25
2023-03-30T23:51:11.154Z,91.63
2023-03-30T23:53:40.384Z,91.58
2023-03-30T23:56:13.091Z,91.29
2023-03-30T23:58:43.424Z,90.30
